createdAt,value
2023-03-17T00:03:52.894Z,100985.63
2023-03-17T00:08:56.559Z,100979.61
2023-03-17T00:13:58.992Z,100980.67
2023-03-17T00:19:02.030Z,100973.61
2023-03-17T00:24:04.604Z,100978.85
2023-03-17T00:29:08.311Z,100979.31
2023-03-17T00:34:16.593Z,100971.20
2023-03-17T00:39:19.603Z,100964.83
2023-03-17T00:44:22.049Z,100966.73
2023-03-17T00:49:26.199Z,100965.80
2023-03-17T00:54:28.776Z,100964.55
2023-03-17T00:59:38.973Z,100966.66
2023-03-17T01:04:47.572Z,100963.87
2023-03-17T01:09:52.618Z,100969.74
2023-03-17T01:14:55.304Z,100969.41
2023-03-17T01:19:58.399Z,100966.76
2023-03-17T01:25:01.556Z,100974.34
2023-03-17T01:30:06.152Z,100974.33
2023-03-17T01:35:08.858Z,100972.05
2023-03-17T01:40:17.261Z,100967.19
2023-03-17T01:45:49.689Z,100964.98
2023-03-17T01:50:53.814Z,100959.41
2023-03-17T01:55:57.859Z,100954.68
2023-03-17T02:01:01.368Z,100963.84
2023-03-17T02:06:04.820Z,100966.98
2023-03-17T02:11:07.271Z,100967.94
2023-03-17T02:16:17.182Z,100966.29
2023-03-17T02:21:31.211Z,100970.52
2023-03-17T02:26:35.488Z,100976.95
2023-03-17T02:31:38.163Z,100975.42
2023-03-17T02:36:40.718Z,100969.25
2023-03-17T02:41:43.524Z,100973.23
2023-03-17T02:46:46.880Z,100975.20
2023-03-17T02:51:49.359Z,100976.80
2023-03-17T02:56:51.794Z,100967.40
2023-03-17T03:01:55.983Z,100968.40
2023-03-17T03:06:58.411Z,100965.45
2023-03-17T03:12:00.915Z,100963.06
2023-03-17T03:17:04.336Z,100969.26
2023-03-17T03:22:07.009Z,100971.77
2023-03-17T03:27:09.498Z,100966.79
2023-03-17T03:32:12.116Z,100963.88
2023-03-17T03:37:15.193Z,100952.75
2023-03-17T03:42:18.077Z,100949.52
2023-03-17T03:47:20.599Z,100942.34
2023-03-17T03:52:23.352Z,100939.70
2023-03-17T03:57:25.945Z,100942.23
2023-03-17T04:02:28.514Z,100943.62
2023-03-17T04:07:31.289Z,100945.15
2023-03-17T04:12:33.750Z,100948.50
2023-03-17T04:17:36.509Z,100952.30
2023-03-17T04:22:39.688Z,100953.23
2023-03-17T04:27:43.266Z,100949.32
2023-03-17T04:32:46.395Z,100943.39
2023-03-17T04:37:50.358Z,100948.38
2023-03-17T04:42:52.881Z,100952.09
2023-03-17T04:47:55.748Z,100959.80
2023-03-17T04:52:58.205Z,100963.88
2023-03-17T04:58:01.337Z,100955.55
2023-03-17T05:03:07.123Z,100955.50
2023-03-17T05:08:13.679Z,100962.15
2023-03-17T05:13:16.400Z,100961.90
2023-03-17T05:18:20.846Z,100964.90
2023-03-17T05:23:23.398Z,100964.34
2023-03-17T05:28:26.813Z,100964.17
2023-03-17T05:33:29.552Z,100963.89
2023-03-17T05:38:32.264Z,100962.63
2023-03-17T05:43:34.695Z,100968.45
2023-03-17T05:48:37.200Z,100971.78
2023-03-17T05:53:39.722Z,100971.13
2023-03-17T05:58:42.539Z,100962.91
2023-03-17T06:03:45.190Z,100967.42
2023-03-17T06:08:47.884Z,100972.39
2023-03-17T06:13:50.396Z,100977.16
2023-03-17T06:18:52.900Z,100981.87
2023-03-17T06:23:55.344Z,100997.97
2023-03-17T06:28:57.816Z,100995.05
2023-03-17T06:34:00.307Z,100991.35
2023-03-17T06:39:03.003Z,100989.25
2023-03-17T06:44:06.201Z,101002.11
2023-03-17T06:49:08.902Z,100993.39
2023-03-17T06:54:12.255Z,100986.83
2023-03-17T06:59:14.813Z,100989.20
2023-03-17T07:04:19.525Z,100995.48
2023-03-17T07:09:22.123Z,100987.90
2023-03-17T07:14:26.977Z,100974.90
2023-03-17T07:19:31.103Z,100979.85
2023-03-17T07:24:34.253Z,100983.58
2023-03-17T07:29:36.789Z,100980.05
2023-03-17T07:34:39.884Z,100978.10
2023-03-17T07:39:42.584Z,100981.11
2023-03-17T07:44:45.477Z,100981.02
2023-03-17T07:49:48.072Z,100978.80
2023-03-17T07:54:52.009Z,100985.23
2023-03-17T07:59:54.783Z,100991.99
2023-03-17T08:04:57.259Z,100995.27
2023-03-17T08:09:59.900Z,100993.34
2023-03-17T08:15:03.539Z,100990.53
2023-03-17T08:20:06.565Z,100992.17
2023-03-17T08:25:09.783Z,100990.82
2023-03-17T08:30:12.904Z,100990.17
2023-03-17T08:35:16.898Z,100984.09
2023-03-17T08:40:19.854Z,100979.45
2023-03-17T08:45:22.838Z,100974.41
2023-03-17T08:50:25.559Z,100971.83
2023-03-17T08:55:28.294Z,100968.06
2023-03-17T09:00:31.028Z,100972.52
2023-03-17T09:05:36.900Z,100977.64
2023-03-17T09:10:43.111Z,100966.95
2023-03-17T09:15:46.747Z,100968.06
2023-03-17T09:20:49.208Z,100971.48
2023-03-17T09:25:52.403Z,100966.64
2023-03-17T09:30:59.359Z,100955.78
2023-03-17T09:36:03.079Z,100944.48
2023-03-17T09:41:41.896Z,100944.33
2023-03-17T09:47:18.163Z,100947.10
2023-03-17T09:52:29.079Z,100940.80
2023-03-17T09:57:35.663Z,100928.40
2023-03-17T10:02:38.455Z,100925.77
2023-03-17T10:07:47.057Z,100931.09
2023-03-17T10:13:08.399Z,100926.27
2023-03-17T10:18:13.727Z,100924.61
2023-03-17T10:23:20.407Z,100920.73
2023-03-17T10:28:29.736Z,100919.15
2023-03-17T10:33:33.104Z,100912.61
2023-03-17T10:38:36.866Z,100904.34
2023-03-17T10:43:48.610Z,100888.66
2023-03-17T10:48:54.360Z,100883.48
2023-03-17T10:54:00.516Z,100871.39
2023-03-17T10:59:09.018Z,100864.93
2023-03-17T11:04:30.042Z,100863.30
2023-03-17T11:09:36.311Z,100861.73
2023-03-17T11:14:44.336Z,100861.54
2023-03-17T11:20:05.795Z,100856.27
2023-03-17T11:25:25.968Z,100854.69
2023-03-17T11:30:35.266Z,100843.15
2023-03-17T11:36:07.034Z,100835.48
2023-03-17T11:41:26.165Z,100821.38
2023-03-17T11:46:29.870Z,100817.55
2023-03-17T11:51:38.162Z,100815.85
2023-03-17T11:56:51.749Z,100814.08
2023-03-17T12:02:16.023Z,100809.13
2023-03-17T12:07:55.059Z,100810.76
2023-03-17T12:13:16.826Z,100801.90
2023-03-17T12:18:30.742Z,100794.88
2023-03-17T12:23:47.993Z,100779.91
2023-03-17T12:29:00.146Z,100766.91
2023-03-17T12:34:25.777Z,100752.88
2023-03-17T12:39:34.045Z,100739.64
2023-03-17T12:44:39.451Z,100732.54
2023-03-17T12:49:45.077Z,100741.30
2023-03-17T12:54:51.517Z,100739.23
2023-03-17T13:00:03.475Z,100718.35
2023-03-17T13:05:13.038Z,100711.07
2023-03-17T13:10:37.282Z,100717.66
2023-03-17T13:15:40.332Z,100718.85
2023-03-17T13:21:02.039Z,100719.35
2023-03-17T13:26:04.536Z,100713.73
2023-03-17T13:31:32.048Z,100711.46
2023-03-17T13:36:44.353Z,100705.42
2023-03-17T13:42:11.842Z,100701.62
2023-03-17T13:47:25.095Z,100694.34
2023-03-17T13:52:32.244Z,100693.80
2023-03-17T13:57:37.588Z,100695.34
2023-03-17T14:02:43.573Z,100693.95
2023-03-17T14:07:56.993Z,100697.59
2023-03-17T14:13:21.586Z,100695.52
2023-03-17T14:18:42.447Z,100687.51
2023-03-17T14:23:56.487Z,100688.09
2023-03-17T14:29:01.042Z,100683.80
2023-03-17T14:34:03.644Z,100690.73
2023-03-17T14:39:07.092Z,100692.25
2023-03-17T14:44:09.814Z,100679.73
2023-03-17T14:49:22.569Z,100673.13
2023-03-17T14:54:35.720Z,100669.17
2023-03-17T14:59:41.300Z,100666.20
2023-03-17T15:04:58.523Z,100672.24
2023-03-17T15:10:04.407Z,100669.00
2023-03-17T15:15:14.248Z,100664.56
2023-03-17T15:20:19.856Z,100656.11
2023-03-17T15:25:42.208Z,100658.27
2023-03-17T15:30:48.688Z,100661.71
2023-03-17T15:35:54.498Z,100661.08
2023-03-17T15:40:57.986Z,100651.20
2023-03-17T15:46:04.088Z,100635.19
2023-03-17T15:51:07.074Z,100617.02
2023-03-17T15:56:18.839Z,100616.77
2023-03-17T16:01:21.676Z,100619.51
2023-03-17T16:06:25.467Z,100616.98
2023-03-17T16:11:31.234Z,100622.73
2023-03-17T16:16:39.606Z,100630.50
2023-03-17T16:21:42.349Z,100633.27
2023-03-17T16:26:44.843Z,100631.56
2023-03-17T16:31:50.052Z,100633.11
2023-03-17T16:36:54.154Z,100633.65
2023-03-17T16:41:57.446Z,100634.71
2023-03-17T16:47:00.499Z,100626.61
2023-03-17T16:52:03.083Z,100625.36
2023-03-17T16:57:07.830Z,100620.90
2023-03-17T17:02:15.793Z,100617.94
2023-03-17T17:07:18.301Z,100612.79
2023-03-17T17:12:21.052Z,100611.05
2023-03-17T17:17:23.621Z,100608.34
2023-03-17T17:22:26.368Z,100617.80
2023-03-17T17:27:29.126Z,100616.36
2023-03-17T17:32:32.002Z,100618.08
2023-03-17T17:37:35.267Z,100621.09
2023-03-17T17:42:37.880Z,100625.64
2023-03-17T17:47:40.633Z,100629.17
2023-03-17T17:52:43.158Z,100626.44
2023-03-17T17:57:45.718Z,100626.60
2023-03-17T18:02:48.225Z,100618.19
2023-03-17T18:07:51.224Z,100613.41
2023-03-17T18:12:54.014Z,100614.63
2023-03-17T18:17:56.806Z,100611.09
2023-03-17T18:22:59.364Z,100604.32
2023-03-17T18:28:01.980Z,100601.34
2023-03-17T18:33:13.361Z,100596.73
2023-03-17T18:38:16.090Z,100606.27
2023-03-17T18:43:18.702Z,100603.16
2023-03-17T18:48:21.558Z,100597.09
2023-03-17T18:53:24.955Z,100592.95
2023-03-17T18:58:28.744Z,100593.48
2023-03-17T19:03:32.373Z,100597.89
2023-03-17T19:08:34.946Z,100602.37
2023-03-17T19:13:38.066Z,100604.19
2023-03-17T19:18:42.357Z,100605.35
2023-03-17T19:23:45.252Z,100603.56
2023-03-17T19:28:47.783Z,100606.98
2023-03-17T19:33:51.740Z,100597.17
2023-03-17T19:38:54.223Z,100595.77
2023-03-17T19:43:56.718Z,100599.64
2023-03-17T19:48:59.688Z,100606.98
2023-03-17T19:54:02.195Z,100601.52
2023-03-17T19:59:06.161Z,100592.79
2023-03-17T20:04:11.267Z,100594.55
2023-03-17T20:09:17.090Z,100595.94
2023-03-17T20:14:20.741Z,100593.02
2023-03-17T20:19:23.881Z,100592.83
2023-03-17T20:24:28.636Z,100591.77
2023-03-17T20:29:31.503Z,100590.71
2023-03-17T20:34:34.676Z,100586.45
2023-03-17T20:39:37.845Z,100582.06
2023-03-17T20:44:41.938Z,100584.32
2023-03-17T20:49:45.739Z,100590.55
2023-03-17T20:54:48.631Z,100596.15
2023-03-17T20:59:54.023Z,100591.25
2023-03-17T21:04:56.750Z,100584.52
2023-03-17T21:10:01.887Z,100585.88
2023-03-17T21:15:07.745Z,100580.16
2023-03-17T21:20:14.705Z,100576.46
2023-03-17T21:25:17.711Z,100574.73
2023-03-17T21:30:20.289Z,100573.48
2023-03-17T21:35:24.887Z,100569.02
2023-03-17T21:40:31.083Z,100557.81
2023-03-17T21:45:33.800Z,100548.73
2023-03-17T21:50:37.106Z,100542.36
2023-03-17T21:55:41.309Z,100539.73
2023-03-17T22:00:45.984Z,100541.67
2023-03-17T22:05:50.707Z,100545.55
2023-03-17T22:10:53.215Z,100549.42
2023-03-17T22:15:59.493Z,100549.20
2023-03-17T22:21:03.004Z,100545.09
2023-03-17T22:26:05.684Z,100545.81
2023-03-17T22:31:13.436Z,100541.09
2023-03-17T22:36:16.380Z,100537.55
2023-03-17T22:41:22.128Z,100538.84
2023-03-17T22:46:25.404Z,100537.05
2023-03-17T22:51:28.478Z,100540.89
2023-03-17T22:56:31.129Z,100543.36
2023-03-17T23:01:33.589Z,100544.11
2023-03-17T23:06:36.656Z,100535.21
2023-03-17T23:11:40.288Z,100535.27
2023-03-17T23:16:43.119Z,100537.83
2023-03-17T23:21:46.177Z,100541.79
2023-03-17T23:26:48.933Z,100539.61
2023-03-17T23:31:51.466Z,100539.85
2023-03-17T23:36:54.132Z,100528.58
2023-03-17T23:41:56.645Z,100525.05
2023-03-17T23:46:59.359Z,100519.49
2023-03-17T23:52:02.422Z,100511.20
2023-03-17T23:57:06.416Z,100508.94
